Little C — WCX810 — position and weather

sailwx.info

Track history (hours):
 
Tides and Currents Weather Stations Pressure Air Temp Water Temp Dewpoint Dewpoint Depression Visibility Wind Speed Wind Dir Waves Ship Positions

Little C

Last reported at 2018-Jun-25 16:08 UTC. Time now 2018-Jul-16 00:52 UTC.
Position N 40°43' W 074°03'.
Warning: this ship's position is 20 days out of date.

Type: Tug. MMSI: 367308350.

Date/timePositionNaut miles runAvg speedWind from/ knotsBaromVisibWave heightAir tempDewpointWater temp
2018-Jun-25 16:08N 40°43' W 074°03'0 0.3
2018-Jun-25 16:00N 40°43' W 074°03'0 0.1
2018-Jun-25 15:30N 40°43' W 074°03'  
2018-Jun-19 17:38N 40°43' W 074°03'0 0.0
2018-Jun-19 17:30N 40°43' W 074°03'1 1.2
2018-Jun-19 17:00N 40°43' W 074°02'2 4.3
2018-Jun-19 16:30N 40°41' W 074°03'2 4.7
2018-Jun-19 16:00N 40°39' W 074°05'2 3.7
2018-Jun-19 15:30N 40°39' W 074°08'1 2.5
2018-Jun-19 15:00N 40°38' W 074°09'1 2.2
2018-Jun-19 14:30N 40°39' W 074°09'0 0.3
2018-Jun-19 14:00N 40°40' W 074°09'0 0.0
2018-Jun-19 13:30N 40°40' W 074°09'0 0.0
2018-Jun-19 13:00N 40°40' W 074°09'0 0.0
2018-Jun-19 12:30N 40°40' W 074°09'0 0.0
2018-Jun-19 12:00N 40°40' W 074°09'0 0.1
2018-Jun-19 11:30N 40°40' W 074°09'1 1.9
2018-Jun-19 11:00N 40°39' W 074°09'0 0.0
2018-Jun-18 16:49N 40°38' W 074°09'1 4.1
2018-Jun-18 16:30N 40°40' W 074°09'0 0.0
2018-Jun-18 16:00N 40°40' W 074°09'0 0.0
2018-Jun-18 15:30N 40°40' W 074°09'0 0.0
2018-Jun-18 15:00N 40°40' W 074°09'0 0.0
2018-Jun-18 14:30N 40°40' W 074°09'0 0.0
2018-Jun-18 14:00N 40°40' W 074°09'0 0.0
2018-Jun-18 13:30N 40°40' W 074°09'0 0.1
2018-Jun-18 13:00N 40°40' W 074°09'0 0.0
2018-Jun-18 12:30N 40°40' W 074°09'0 0.0
2018-Jun-18 12:00N 40°40' W 074°09'0 0.0
2018-Jun-18 11:30N 40°40' W 074°09'0 0.7
2018-Jun-18 11:00N 40°40' W 074°09'0 0.1
2018-Jun-18 10:30N 40°40' W 074°09'1 2.6
2018-Jun-18 10:00N 40°38' W 074°09'  
2018-Jun-15 17:49N 40°38' W 074°09'1 4.1
2018-Jun-15 17:30N 40°40' W 074°09'0 0.7
2018-Jun-15 17:00N 40°40' W 074°09'0 0.0
2018-Jun-15 16:30N 40°40' W 074°09'  
Track history (hours):
 
Tides and Currents Weather Stations Pressure Air Temp Water Temp Dewpoint Dewpoint Depression Visibility Wind Speed Wind Dir Waves Ship Positions

Little C

Last reported at 2018-Jun-25 16:08 UTC. Time now 2018-Jul-16 00:52 UTC.
Position N 40°43' W 074°03'.
Warning: this ship's position is 20 days out of date.

Type: Tug. MMSI: 367308350.

Date/timePositionNaut miles runAvg speedWind from/ knotsBaromVisibWave heightAir tempDewpointWater temp
2018-Jun-25 16:08N 40°43' W 074°03'0 0.3
2018-Jun-25 16:00N 40°43' W 074°03'0 0.1
2018-Jun-25 15:30N 40°43' W 074°03'  
2018-Jun-19 17:38N 40°43' W 074°03'0 0.0
2018-Jun-19 17:30N 40°43' W 074°03'1 1.2
2018-Jun-19 17:00N 40°43' W 074°02'2 4.3
2018-Jun-19 16:30N 40°41' W 074°03'2 4.7
2018-Jun-19 16:00N 40°39' W 074°05'2 3.7
2018-Jun-19 15:30N 40°39' W 074°08'1 2.5
2018-Jun-19 15:00N 40°38' W 074°09'1 2.2
2018-Jun-19 14:30N 40°39' W 074°09'0 0.3
2018-Jun-19 14:00N 40°40' W 074°09'0 0.0
2018-Jun-19 13:30N 40°40' W 074°09'0 0.0
2018-Jun-19 13:00N 40°40' W 074°09'0 0.0
2018-Jun-19 12:30N 40°40' W 074°09'0 0.0
2018-Jun-19 12:00N 40°40' W 074°09'0 0.1
2018-Jun-19 11:30N 40°40' W 074°09'1 1.9
2018-Jun-19 11:00N 40°39' W 074°09'0 0.0
2018-Jun-18 16:49N 40°38' W 074°09'1 4.1
2018-Jun-18 16:30N 40°40' W 074°09'0 0.0
2018-Jun-18 16:00N 40°40' W 074°09'0 0.0
2018-Jun-18 15:30N 40°40' W 074°09'0 0.0
2018-Jun-18 15:00N 40°40' W 074°09'0 0.0
2018-Jun-18 14:30N 40°40' W 074°09'0 0.0
2018-Jun-18 14:00N 40°40' W 074°09'0 0.0
2018-Jun-18 13:30N 40°40' W 074°09'0 0.1
2018-Jun-18 13:00N 40°40' W 074°09'0 0.0
2018-Jun-18 12:30N 40°40' W 074°09'0 0.0
2018-Jun-18 12:00N 40°40' W 074°09'0 0.0
2018-Jun-18 11:30N 40°40' W 074°09'0 0.7
2018-Jun-18 11:00N 40°40' W 074°09'0 0.1
2018-Jun-18 10:30N 40°40' W 074°09'1 2.6
2018-Jun-18 10:00N 40°38' W 074°09'  
2018-Jun-15 17:49N 40°38' W 074°09'1 4.1
2018-Jun-15 17:30N 40°40' W 074°09'0 0.7
2018-Jun-15 17:00N 40°40' W 074°09'0 0.0
2018-Jun-15 16:30N 40°40' W 074°09'  

Dump ship's entire track history